Straumberg — LIOD — position and weather

sailwx.info

Track history (hours):
 
Tides and Currents Weather Stations Pressure Air Temp Water Temp Dewpoint Dewpoint Depression Visibility Wind Speed Wind Dir Waves Ship Positions

Straumberg

Last reported at 2013-Nov-10 22:07 UTC. Time now 2014-Oct-23 03:11 UTC.
Position N 61°45' E 004°59'.
Warning: this ship's position is months out of date.

Length 38 m.

Type: Fishing. MMSI: 258035000.

Date/timePositionNaut miles runAvg speedWind from/ knotsBaromVisibWave heightAir tempDewpointWater temp
2013-Nov-10 22:07N 61°45' E 004°59'5 9.0
2013-Nov-10 21:33N 61°40' E 004°58'9 8.7
2013-Nov-10 20:34N 61°31' E 005°00'9 8.7
2013-Nov-10 19:33N 61°24' E 004°50'62 8.5
2013-Nov-10 12:17N 60°23' E 005°10'  
2013-Nov-05 16:33N 61°20' E 004°48'9 9.0
2013-Nov-05 15:31N 61°28' E 004°57'8 8.0
2013-Nov-05 14:33N 61°36' E 004°59'1 1.3
2013-Nov-05 13:33N 61°36' E 005°01'8 7.5
2013-Nov-05 12:33N 61°43' E 004°56'3 3.1
2013-Nov-05 11:33N 61°46' E 004°53'0 0.0
2013-Nov-05 10:32N 61°46' E 004°53'0 0.0
2013-Nov-05 09:33N 61°46' E 004°53'0 0.0
2013-Nov-05 08:33N 61°46' E 004°53'0 0.0
2013-Nov-05 07:33N 61°46' E 004°53'1 0.9
2013-Nov-05 06:33N 61°45' E 004°54'9 9.1
2013-Nov-05 05:33N 61°36' E 004°58'2 1.6
2013-Nov-05 04:33N 61°35' E 004°60'0 0.0
2013-Nov-05 03:33N 61°35' E 004°60'0 0.0
2013-Nov-05 02:33N 61°35' E 004°60'0 0.0
2013-Nov-05 01:33N 61°35' E 004°60'0 0.0
2013-Nov-05 00:32N 61°35' E 004°60'4 3.9
2013-Nov-04 23:32N 61°31' E 005°00'9 9.1
2013-Nov-04 22:32N 61°24' E 004°50'  
2013-Nov-01 14:30N 58°22' E 005°40'8 8.4
2013-Nov-01 13:33N 58°24' E 005°54'4 4.1
2013-Nov-01 12:33N 58°27' E 005°60'0 0.0
2013-Nov-01 11:33N 58°27' E 005°60'0 0.0
2013-Nov-01 10:33N 58°27' E 005°60'0 0.0
2013-Nov-01 09:33N 58°27' E 005°60'0 0.0
2013-Nov-01 08:33N 58°27' E 005°60'0 0.0
2013-Nov-01 07:33N 58°27' E 005°60'0 0.0
2013-Nov-01 06:34N 58°27' E 005°60'0 0.0
2013-Nov-01 05:33N 58°27' E 005°60'0 0.0
2013-Nov-01 04:33N 58°27' E 005°60'0 0.0
2013-Nov-01 03:33N 58°27' E 005°60'0 0.0
2013-Nov-01 02:33N 58°27' E 005°60'0 0.0
2013-Nov-01 01:33N 58°27' E 005°60'0 0.0
2013-Nov-01 00:33N 58°27' E 005°60'0 0.0
2013-Oct-31 23:33N 58°27' E 005°60'0 0.0
2013-Oct-31 22:33N 58°27' E 005°60'  
Track history (hours):
 
Tides and Currents Weather Stations Pressure Air Temp Water Temp Dewpoint Dewpoint Depression Visibility Wind Speed Wind Dir Waves Ship Positions

Straumberg

Last reported at 2013-Nov-10 22:07 UTC. Time now 2014-Oct-23 03:11 UTC.
Position N 61°45' E 004°59'.
Warning: this ship's position is months out of date.

Length 38 m.

Type: Fishing. MMSI: 258035000.

Date/timePositionNaut miles runAvg speedWind from/ knotsBaromVisibWave heightAir tempDewpointWater temp
2013-Nov-10 22:07N 61°45' E 004°59'5 9.0
2013-Nov-10 21:33N 61°40' E 004°58'9 8.7
2013-Nov-10 20:34N 61°31' E 005°00'9 8.7
2013-Nov-10 19:33N 61°24' E 004°50'62 8.5
2013-Nov-10 12:17N 60°23' E 005°10'  
2013-Nov-05 16:33N 61°20' E 004°48'9 9.0
2013-Nov-05 15:31N 61°28' E 004°57'8 8.0
2013-Nov-05 14:33N 61°36' E 004°59'1 1.3
2013-Nov-05 13:33N 61°36' E 005°01'8 7.5
2013-Nov-05 12:33N 61°43' E 004°56'3 3.1
2013-Nov-05 11:33N 61°46' E 004°53'0 0.0
2013-Nov-05 10:32N 61°46' E 004°53'0 0.0
2013-Nov-05 09:33N 61°46' E 004°53'0 0.0
2013-Nov-05 08:33N 61°46' E 004°53'0 0.0
2013-Nov-05 07:33N 61°46' E 004°53'1 0.9
2013-Nov-05 06:33N 61°45' E 004°54'9 9.1
2013-Nov-05 05:33N 61°36' E 004°58'2 1.6
2013-Nov-05 04:33N 61°35' E 004°60'0 0.0
2013-Nov-05 03:33N 61°35' E 004°60'0 0.0
2013-Nov-05 02:33N 61°35' E 004°60'0 0.0
2013-Nov-05 01:33N 61°35' E 004°60'0 0.0
2013-Nov-05 00:32N 61°35' E 004°60'4 3.9
2013-Nov-04 23:32N 61°31' E 005°00'9 9.1
2013-Nov-04 22:32N 61°24' E 004°50'  
2013-Nov-01 14:30N 58°22' E 005°40'8 8.4
2013-Nov-01 13:33N 58°24' E 005°54'4 4.1
2013-Nov-01 12:33N 58°27' E 005°60'0 0.0
2013-Nov-01 11:33N 58°27' E 005°60'0 0.0
2013-Nov-01 10:33N 58°27' E 005°60'0 0.0
2013-Nov-01 09:33N 58°27' E 005°60'0 0.0
2013-Nov-01 08:33N 58°27' E 005°60'0 0.0
2013-Nov-01 07:33N 58°27' E 005°60'0 0.0
2013-Nov-01 06:34N 58°27' E 005°60'0 0.0
2013-Nov-01 05:33N 58°27' E 005°60'0 0.0
2013-Nov-01 04:33N 58°27' E 005°60'0 0.0
2013-Nov-01 03:33N 58°27' E 005°60'0 0.0
2013-Nov-01 02:33N 58°27' E 005°60'0 0.0
2013-Nov-01 01:33N 58°27' E 005°60'0 0.0
2013-Nov-01 00:33N 58°27' E 005°60'0 0.0
2013-Oct-31 23:33N 58°27' E 005°60'0 0.0
2013-Oct-31 22:33N 58°27' E 005°60'  

Dump ship's entire track history